sensor_id;sensor_type;location;lat;lon;timestamp;temperature;humidity
31747;DHT22;18319;48.974;8.462;2024-03-17T00:01:35;8.70;99.90
31747;DHT22;18319;48.974;8.462;2024-03-17T00:04:02;8.70;99.90
31747;DHT22;18319;48.974;8.462;2024-03-17T00:06:29;8.70;99.90
31747;DHT22;18319;48.974;8.462;2024-03-17T00:08:56;8.70;99.90
31747;DHT22;18319;48.974;8.462;2024-03-17T00:11:22;8.60;99.90
31747;DHT22;18319;48.974;8.462;2024-03-17T00:13:49;8.50;99.90
31747;DHT22;18319;48.974;8.462;2024-03-17T00:16:15;8.50;99.90
31747;DHT22;18319;48.974;8.462;2024-03-17T00:18:44;8.50;99.90
31747;DHT22;18319;48.974;8.462;2024-03-17T00:21:11;8.50;99.90
31747;DHT22;18319;48.974;8.462;2024-03-17T00:23:39;8.60;99.90
31747;DHT22;18319;48.974;8.462;2024-03-17T00:26:05;8.60;99.90
31747;DHT22;18319;48.974;8.462;2024-03-17T00:28:32;8.60;99.90
31747;DHT22;18319;48.974;8.462;2024-03-17T00:30:59;8.60;99.90
31747;DHT22;18319;48.974;8.462;2024-03-17T00:33:24;8.60;99.90
31747;DHT22;18319;48.974;8.462;2024-03-17T00:35:51;8.60;99.90
31747;DHT22;18319;48.974;8.462;2024-03-17T00:38:17;8.60;99.90
31747;DHT22;18319;48.974;8.462;2024-03-17T00:40:45;8.60;99.90
31747;DHT22;18319;48.974;8.462;2024-03-17T00:43:12;8.60;99.90
31747;DHT22;18319;48.974;8.462;2024-03-17T00:45:39;8.50;99.90
31747;DHT22;18319;48.974;8.462;2024-03-17T00:48:06;8.50;99.90
31747;DHT22;18319;48.974;8.462;2024-03-17T00:50:32;8.50;99.90
31747;DHT22;18319;48.974;8.462;2024-03-17T00:52:58;8.40;99.90
31747;DHT22;18319;48.974;8.462;2024-03-17T00:55:26;8.40;99.90
31747;DHT22;18319;48.974;8.462;2024-03-17T00:57:53;8.30;99.90
31747;DHT22;18319;48.974;8.462;2024-03-17T01:00:20;8.20;99.90
31747;DHT22;18319;48.974;8.462;2024-03-17T01:02:45;8.20;99.90
31747;DHT22;18319;48.974;8.462;2024-03-17T01:05:12;8.10;99.90
31747;DHT22;18319;48.974;8.462;2024-03-17T01:07:38;8.10;99.90
31747;DHT22;18319;48.974;8.462;2024-03-17T01:10:06;8.10;99.90
31747;DHT22;18319;48.974;8.462;2024-03-17T01:12:34;8.20;99.90
31747;DHT22;18319;48.974;8.462;2024-03-17T01:15:03;8.10;99.90
31747;DHT22;18319;48.974;8.462;2024-03-17T01:17:29;8.00;99.90
31747;DHT22;18319;48.974;8.462;2024-03-17T01:19:56;8.00;99.90
31747;DHT22;18319;48.974;8.462;2024-03-17T01:22:25;8.00;99.90
31747;DHT22;18319;48.974;8.462;2024-03-17T01:24:51;8.00;99.90
31747;DHT22;18319;48.974;8.462;2024-03-17T01:27:17;7.90;99.90
31747;DHT22;18319;48.974;8.462;2024-03-17T01:29:44;8.00;99.90
31747;DHT22;18319;48.974;8.462;2024-03-17T01:32:12;7.90;99.90
31747;DHT22;18319;48.974;8.462;2024-03-17T01:34:38;7.90;99.90
31747;DHT22;18319;48.974;8.462;2024-03-17T01:37:05;7.90;99.90
31747;DHT22;18319;48.974;8.462;2024-03-17T01:39:31;7.80;99.90
31747;DHT22;18319;48.974;8.462;2024-03-17T01:41:59;7.90;99.90
31747;DHT22;18319;48.974;8.462;2024-03-17T01:44:26;7.90;99.90
31747;DHT22;18319;48.974;8.462;2024-03-17T01:46:53;7.80;99.90
31747;DHT22;18319;48.974;8.462;2024-03-17T01:49:20;7.80;99.90
31747;DHT22;18319;48.974;8.462;2024-03-17T01:51:50;7.80;99.90
31747;DHT22;18319;48.974;8.462;2024-03-17T01:54:16;7.90;99.90
31747;DHT22;18319;48.974;8.462;2024-03-17T01:56:44;7.90;99.90
31747;DHT22;18319;48.974;8.462;2024-03-17T01:59:10;8.00;99.90
31747;DHT22;18319;48.974;8.462;2024-03-17T02:01:37;7.90;99.90
31747;DHT22;18319;48.974;8.462;2024-03-17T02:04:04;7.90;99.90
31747;DHT22;18319;48.974;8.462;2024-03-17T02:06:32;7.90;99.90
31747;DHT22;18319;48.974;8.462;2024-03-17T02:08:58;7.90;99.90
31747;DHT22;18319;48.974;8.462;2024-03-17T02:11:26;7.90;99.90
31747;DHT22;18319;48.974;8.462;2024-03-17T02:13:53;7.90;99.90
31747;DHT22;18319;48.974;8.462;2024-03-17T02:16:20;7.90;99.90
31747;DHT22;18319;48.974;8.462;2024-03-17T02:18:46;8.00;99.90
31747;DHT22;18319;48.974;8.462;2024-03-17T02:21:13;7.90;99.90
31747;DHT22;18319;48.974;8.462;2024-03-17T02:23:40;7.90;99.90
31747;DHT22;18319;48.974;8.462;2024-03-17T02:26:07;7.90;99.90
31747;DHT22;18319;48.974;8.462;2024-03-17T02:28:39;7.90;99.90
31747;DHT22;18319;48.974;8.462;2024-03-17T02:31:07;7.90;99.90
31747;DHT22;18319;48.974;8.462;2024-03-17T02:33:34;7.80;99.90
31747;DHT22;18319;48.974;8.462;2024-03-17T02:36:00;7.70;99.90
31747;DHT22;18319;48.974;8.462;2024-03-17T02:38:26;7.70;99.90
31747;DHT22;18319;48.974;8.462;2024-03-17T02:41:11;7.70;99.90
31747;DHT22;18319;48.974;8.462;2024-03-17T02:43:38;7.70;99.90
31747;DHT22;18319;48.974;8.462;2024-03-17T02:46:05;7.60;99.90
31747;DHT22;18319;48.974;8.462;2024-03-17T02:48:34;7.60;99.90
31747;DHT22;18319;48.974;8.462;2024-03-17T02:51:02;7.50;99.90
31747;DHT22;18319;48.974;8.462;2024-03-17T02:53:30;7.50;99.90
31747;DHT22;18319;48.974;8.462;2024-03-17T02:55:57;7.50;99.90
31747;DHT22;18319;48.974;8.462;2024-03-17T02:58:25;7.50;99.90
31747;DHT22;18319;48.974;8.462;2024-03-17T03:00:51;7.60;99.90
31747;DHT22;18319;48.974;8.462;2024-03-17T03:03:19;7.60;99.90
31747;DHT22;18319;48.974;8.462;2024-03-17T03:05:46;7.60;99.90
31747;DHT22;18319;48.974;8.462;2024-03-17T03:08:14;7.50;99.90
31747;DHT22;18319;48.974;8.462;2024-03-17T03:10:44;7.50;99.90
31747;DHT22;18319;48.974;8.462;2024-03-17T03:13:11;7.50;99.90
31747;DHT22;18319;48.974;8.462;2024-03-17T03:15:39;7.50;99.90
31747;DHT22;18319;48.974;8.462;2024-03-17T03:18:06;7.50;99.90
31747;DHT22;18319;48.974;8.462;2024-03-17T03:20:32;7.50;99.90
31747;DHT22;18319;48.974;8.462;2024-03-17T03:22:59;7.40;99.90
31747;DHT22;18319;48.974;8.462;2024-03-17T03:25:27;7.50;99.90
31747;DHT22;18319;48.974;8.462;2024-03-17T03:27:53;7.40;99.90
31747;DHT22;18319;48.974;8.462;2024-03-17T03:30:23;7.40;99.90
31747;DHT22;18319;48.974;8.462;2024-03-17T03:32:51;7.40;99.90
31747;DHT22;18319;48.974;8.462;2024-03-17T03:35:18;7.50;99.90
31747;DHT22;18319;48.974;8.462;2024-03-17T03:37:44;7.40;99.90
31747;DHT22;18319;48.974;8.462;2024-03-17T03:40:12;7.30;99.90
31747;DHT22;18319;48.974;8.462;2024-03-17T03:42:41;7.30;99.90
31747;DHT22;18319;48.974;8.462;2024-03-17T03:45:08;7.30;99.90
31747;DHT22;18319;48.974;8.462;2024-03-17T03:47:38;7.30;99.90
31747;DHT22;18319;48.974;8.462;2024-03-17T03:50:07;7.30;99.90
31747;DHT22;18319;48.974;8.462;2024-03-17T03:52:35;7.20;99.90
31747;DHT22;18319;48.974;8.462;2024-03-17T03:55:02;7.20;99.90
31747;DHT22;18319;48.974;8.462;2024-03-17T03:57:31;7.20;99.90
31747;DHT22;18319;48.974;8.462;2024-03-17T03:59:59;7.10;99.90
31747;DHT22;18319;48.974;8.462;2024-03-17T04:02:26;7.20;99.90
31747;DHT22;18319;48.974;8.462;2024-03-17T04:04:56;7.20;99.90
31747;DHT22;18319;48.974;8.462;2024-03-17T04:07:24;7.10;99.90
31747;DHT22;18319;48.974;8.462;2024-03-17T04:09:52;7.10;99.90
31747;DHT22;18319;48.974;8.462;2024-03-17T04:12:20;7.10;99.90
31747;DHT22;18319;48.974;8.462;2024-03-17T04:14:46;7.30;99.90
31747;DHT22;18319;48.974;8.462;2024-03-17T04:17:18;7.20;99.90
31747;DHT22;18319;48.974;8.462;2024-03-17T04:19:46;7.20;99.90
31747;DHT22;18319;48.974;8.462;2024-03-17T04:22:14;7.30;99.90
31747;DHT22;18319;48.974;8.462;2024-03-17T04:24:43;7.30;99.90
31747;DHT22;18319;48.974;8.462;2024-03-17T04:27:10;7.30;99.90
31747;DHT22;18319;48.974;8.462;2024-03-17T04:29:37;7.30;99.90
31747;DHT22;18319;48.974;8.462;2024-03-17T04:32:04;7.30;99.90
31747;DHT22;18319;48.974;8.462;2024-03-17T04:34:31;7.30;99.90
31747;DHT22;18319;48.974;8.462;2024-03-17T04:36:58;7.40;99.90
31747;DHT22;18319;48.974;8.462;2024-03-17T04:39:25;7.50;99.90
31747;DHT22;18319;48.974;8.462;2024-03-17T04:41:53;7.50;99.90
31747;DHT22;18319;48.974;8.462;2024-03-17T04:44:20;7.60;99.90
31747;DHT22;18319;48.974;8.462;2024-03-17T04:46:47;7.70;99.90
31747;DHT22;18319;48.974;8.462;2024-03-17T04:49:14;7.60;99.90
31747;DHT22;18319;48.974;8.462;2024-03-17T04:51:40;7.60;99.90
31747;DHT22;18319;48.974;8.462;2024-03-17T04:54:07;7.50;99.90
31747;DHT22;18319;48.974;8.462;2024-03-17T04:56:34;7.30;99.90
31747;DHT22;18319;48.974;8.462;2024-03-17T04:59:02;7.30;99.90
31747;DHT22;18319;48.974;8.462;2024-03-17T05:01:30;7.30;99.90
31747;DHT22;18319;48.974;8.462;2024-03-17T05:04:01;7.20;99.90
31747;DHT22;18319;48.974;8.462;2024-03-17T05:06:28;7.10;99.90
31747;DHT22;18319;48.974;8.462;2024-03-17T05:08:55;7.10;99.90
31747;DHT22;18319;48.974;8.462;2024-03-17T05:11:22;7.10;99.90
31747;DHT22;18319;48.974;8.462;2024-03-17T05:13:49;7.10;99.90
31747;DHT22;18319;48.974;8.462;2024-03-17T05:16:18;7.10;99.90
31747;DHT22;18319;48.974;8.462;2024-03-17T05:18:44;7.10;99.90
31747;DHT22;18319;48.974;8.462;2024-03-17T05:21:11;7.10;99.90
31747;DHT22;18319;48.974;8.462;2024-03-17T05:23:38;7.10;99.90
31747;DHT22;18319;48.974;8.462;2024-03-17T05:26:05;7.10;99.90
31747;DHT22;18319;48.974;8.462;2024-03-17T05:28:33;7.00;99.90
31747;DHT22;18319;48.974;8.462;2024-03-17T05:30:59;6.90;99.90
31747;DHT22;18319;48.974;8.462;2024-03-17T05:33:28;6.90;99.90
31747;DHT22;18319;48.974;8.462;2024-03-17T05:35:55;6.80;99.90
31747;DHT22;18319;48.974;8.462;2024-03-17T05:38:24;6.80;99.90
31747;DHT22;18319;48.974;8.462;2024-03-17T05:40:56;6.90;99.90
31747;DHT22;18319;48.974;8.462;2024-03-17T05:43:26;6.80;99.90
31747;DHT22;18319;48.974;8.462;2024-03-17T05:45:53;6.90;99.90
31747;DHT22;18319;48.974;8.462;2024-03-17T05:48:20;6.90;99.90
31747;DHT22;18319;48.974;8.462;2024-03-17T05:50:48;6.90;99.90
31747;DHT22;18319;48.974;8.462;2024-03-17T05:53:15;7.10;99.90
31747;DHT22;18319;48.974;8.462;2024-03-17T05:55:43;7.20;99.90
31747;DHT22;18319;48.974;8.462;2024-03-17T05:58:11;7.30;99.90
31747;DHT22;18319;48.974;8.462;2024-03-17T06:00:38;7.30;99.90
31747;DHT22;18319;48.974;8.462;2024-03-17T06:03:06;7.30;99.90
31747;DHT22;18319;48.974;8.462;2024-03-17T06:05:33;7.20;99.90
31747;DHT22;18319;48.974;8.462;2024-03-17T06:08:02;7.10;99.90
31747;DHT22;18319;48.974;8.462;2024-03-17T06:10:30;7.10;99.90
31747;DHT22;18319;48.974;8.462;2024-03-17T06:12:57;7.20;99.90
31747;DHT22;18319;48.974;8.462;2024-03-17T06:15:25;7.30;99.90
31747;DHT22;18319;48.974;8.462;2024-03-17T06:17:53;7.30;99.90
31747;DHT22;18319;48.974;8.462;2024-03-17T06:20:20;7.30;99.90
31747;DHT22;18319;48.974;8.462;2024-03-17T06:22:47;7.30;99.90
31747;DHT22;18319;48.974;8.462;2024-03-17T06:25:16;7.30;99.90
31747;DHT22;18319;48.974;8.462;2024-03-17T06:27:42;7.40;99.90
31747;DHT22;18319;48.974;8.462;2024-03-17T06:30:12;7.40;99.90
31747;DHT22;18319;48.974;8.462;2024-03-17T06:32:39;7.50;99.90
31747;DHT22;18319;48.974;8.462;2024-03-17T06:35:07;7.60;99.90
31747;DHT22;18319;48.974;8.462;2024-03-17T06:37:34;7.70;99.90
31747;DHT22;18319;48.974;8.462;2024-03-17T06:40:01;7.80;99.90
31747;DHT22;18319;48.974;8.462;2024-03-17T06:42:30;7.90;99.90
31747;DHT22;18319;48.974;8.462;2024-03-17T06:44:57;8.00;99.90
31747;DHT22;18319;48.974;8.462;2024-03-17T06:47:24;8.10;99.90
31747;DHT22;18319;48.974;8.462;2024-03-17T06:49:51;8.10;99.90
31747;DHT22;18319;48.974;8.462;2024-03-17T06:52:17;8.10;99.90
31747;DHT22;18319;48.974;8.462;2024-03-17T06:54:47;8.10;99.90
31747;DHT22;18319;48.974;8.462;2024-03-17T06:57:15;8.10;99.90
31747;DHT22;18319;48.974;8.462;2024-03-17T06:59:43;8.20;99.90
31747;DHT22;18319;48.974;8.462;2024-03-17T07:02:11;8.20;99.90
31747;DHT22;18319;48.974;8.462;2024-03-17T07:04:42;8.40;99.90
31747;DHT22;18319;48.974;8.462;2024-03-17T07:07:10;8.60;99.90
31747;DHT22;18319;48.974;8.462;2024-03-17T07:09:37;8.70;99.90
31747;DHT22;18319;48.974;8.462;2024-03-17T07:12:05;8.80;99.90
31747;DHT22;18319;48.974;8.462;2024-03-17T07:14:32;8.90;99.90
31747;DHT22;18319;48.974;8.462;2024-03-17T07:17:00;9.00;99.90
31747;DHT22;18319;48.974;8.462;2024-03-17T07:19:27;9.20;99.90
31747;DHT22;18319;48.974;8.462;2024-03-17T07:21:56;9.40;99.90
31747;DHT22;18319;48.974;8.462;2024-03-17T07:24:23;9.60;99.90
31747;DHT22;18319;48.974;8.462;2024-03-17T07:26:50;9.70;99.90
31747;DHT22;18319;48.974;8.462;2024-03-17T07:29:17;9.90;99.90
31747;DHT22;18319;48.974;8.462;2024-03-17T07:31:44;10.00;99.90
31747;DHT22;18319;48.974;8.462;2024-03-17T07:34:13;10.30;99.90
31747;DHT22;18319;48.974;8.462;2024-03-17T07:36:39;10.30;99.90
31747;DHT22;18319;48.974;8.462;2024-03-17T07:39:06;10.30;99.90
31747;DHT22;18319;48.974;8.462;2024-03-17T07:41:33;10.30;99.90
31747;DHT22;18319;48.974;8.462;2024-03-17T07:44:00;10.50;99.90
31747;DHT22;18319;48.974;8.462;2024-03-17T07:46:27;10.60;99.90
31747;DHT22;18319;48.974;8.462;2024-03-17T07:48:54;10.40;99.90
31747;DHT22;18319;48.974;8.462;2024-03-17T07:51:22;10.50;99.90
31747;DHT22;18319;48.974;8.462;2024-03-17T07:53:49;10.60;99.90
31747;DHT22;18319;48.974;8.462;2024-03-17T07:56:20;10.60;99.90
31747;DHT22;18319;48.974;8.462;2024-03-17T07:58:47;10.40;99.90
31747;DHT22;18319;48.974;8.462;2024-03-17T08:01:16;10.50;99.90
31747;DHT22;18319;48.974;8.462;2024-03-17T08:03:45;10.40;99.90
31747;DHT22;18319;48.974;8.462;2024-03-17T08:06:12;10.40;99.90
31747;DHT22;18319;48.974;8.462;2024-03-17T08:08:42;10.40;99.90
31747;DHT22;18319;48.974;8.462;2024-03-17T08:11:09;10.30;99.90
31747;DHT22;18319;48.974;8.462;2024-03-17T08:13:36;10.30;99.90
31747;DHT22;18319;48.974;8.462;2024-03-17T08:16:04;10.50;99.90
31747;DHT22;18319;48.974;8.462;2024-03-17T08:18:32;10.70;99.90
31747;DHT22;18319;48.974;8.462;2024-03-17T08:21:00;10.70;99.90
31747;DHT22;18319;48.974;8.462;2024-03-17T08:23:27;10.60;99.90
31747;DHT22;18319;48.974;8.462;2024-03-17T08:25:56;10.60;99.90
31747;DHT22;18319;48.974;8.462;2024-03-17T08:28:23;10.60;99.90
31747;DHT22;18319;48.974;8.462;2024-03-17T08:30:51;10.70;99.90
31747;DHT22;18319;48.974;8.462;2024-03-17T08:33:19;10.70;99.90
31747;DHT22;18319;48.974;8.462;2024-03-17T08:35:53;10.90;99.90
31747;DHT22;18319;48.974;8.462;2024-03-17T08:38:20;11.00;99.90
31747;DHT22;18319;48.974;8.462;2024-03-17T08:40:48;10.90;99.90
31747;DHT22;18319;48.974;8.462;2024-03-17T08:43:16;11.00;99.90
31747;DHT22;18319;48.974;8.462;2024-03-17T08:45:43;10.90;99.90
31747;DHT22;18319;48.974;8.462;2024-03-17T08:48:10;11.00;99.90
31747;DHT22;18319;48.974;8.462;2024-03-17T08:50:37;11.10;99.90
31747;DHT22;18319;48.974;8.462;2024-03-17T08:53:04;11.20;99.90
31747;DHT22;18319;48.974;8.462;2024-03-17T08:55:30;11.20;99.90
31747;DHT22;18319;48.974;8.462;2024-03-17T08:57:57;11.20;99.90
31747;DHT22;18319;48.974;8.462;2024-03-17T09:00:25;11.20;99.90
31747;DHT22;18319;48.974;8.462;2024-03-17T09:02:52;11.30;99.90
31747;DHT22;18319;48.974;8.462;2024-03-17T09:05:19;11.30;99.90
31747;DHT22;18319;48.974;8.462;2024-03-17T09:07:45;11.40;99.90
31747;DHT22;18319;48.974;8.462;2024-03-17T09:10:12;11.50;99.90
31747;DHT22;18319;48.974;8.462;2024-03-17T09:12:39;11.60;99.90
31747;DHT22;18319;48.974;8.462;2024-03-17T09:15:07;11.70;99.90
31747;DHT22;18319;48.974;8.462;2024-03-17T09:17:38;11.70;99.90
31747;DHT22;18319;48.974;8.462;2024-03-17T09:20:06;11.80;99.90
31747;DHT22;18319;48.974;8.462;2024-03-17T09:22:37;11.60;99.90
31747;DHT22;18319;48.974;8.462;2024-03-17T09:25:05;11.60;99.90
31747;DHT22;18319;48.974;8.462;2024-03-17T09:27:33;11.80;99.90
31747;DHT22;18319;48.974;8.462;2024-03-17T09:30:02;12.10;99.90
31747;DHT22;18319;48.974;8.462;2024-03-17T09:32:31;12.20;99.90
31747;DHT22;18319;48.974;8.462;2024-03-17T09:34:59;12.30;99.90
31747;DHT22;18319;48.974;8.462;2024-03-17T09:37:26;12.30;99.90
31747;DHT22;18319;48.974;8.462;2024-03-17T09:39:53;12.40;99.90
31747;DHT22;18319;48.974;8.462;2024-03-17T09:42:23;12.30;99.90
31747;DHT22;18319;48.974;8.462;2024-03-17T09:44:50;12.40;99.90
31747;DHT22;18319;48.974;8.462;2024-03-17T09:47:20;12.50;99.90
31747;DHT22;18319;48.974;8.462;2024-03-17T09:49:47;12.40;99.90
31747;DHT22;18319;48.974;8.462;2024-03-17T09:52:20;12.50;99.90
31747;DHT22;18319;48.974;8.462;2024-03-17T09:54:59;12.60;99.90
31747;DHT22;18319;48.974;8.462;2024-03-17T09:57:26;12.70;99.90
31747;DHT22;18319;48.974;8.462;2024-03-17T09:59:53;12.80;99.90
31747;DHT22;18319;48.974;8.462;2024-03-17T10:02:21;12.90;99.90
31747;DHT22;18319;48.974;8.462;2024-03-17T10:04:48;13.20;99.90
31747;DHT22;18319;48.974;8.462;2024-03-17T10:07:16;13.10;99.90
31747;DHT22;18319;48.974;8.462;2024-03-17T10:09:43;13.10;99.90
31747;DHT22;18319;48.974;8.462;2024-03-17T10:12:27;13.30;99.90
31747;DHT22;18319;48.974;8.462;2024-03-17T10:15:00;13.20;99.90
31747;DHT22;18319;48.974;8.462;2024-03-17T10:17:31;13.30;99.90
31747;DHT22;18319;48.974;8.462;2024-03-17T10:20:11;13.40;99.90
31747;DHT22;18319;48.974;8.462;2024-03-17T10:22:57;13.30;99.90
31747;DHT22;18319;48.974;8.462;2024-03-17T10:25:25;12.90;99.90
31747;DHT22;18319;48.974;8.462;2024-03-17T10:27:52;12.90;99.90
31747;DHT22;18319;48.974;8.462;2024-03-17T10:30:19;13.10;99.90
31747;DHT22;18319;48.974;8.462;2024-03-17T10:32:52;13.10;99.90
31747;DHT22;18319;48.974;8.462;2024-03-17T10:35:30;13.30;99.90
31747;DHT22;18319;48.974;8.462;2024-03-17T10:37:59;13.30;99.90
31747;DHT22;18319;48.974;8.462;2024-03-17T10:40:27;13.60;99.90
31747;DHT22;18319;48.974;8.462;2024-03-17T10:42:55;13.90;99.90
31747;DHT22;18319;48.974;8.462;2024-03-17T10:45:22;13.90;99.90
31747;DHT22;18319;48.974;8.462;2024-03-17T10:47:51;13.90;99.90
31747;DHT22;18319;48.974;8.462;2024-03-17T10:50:19;13.90;99.90
31747;DHT22;18319;48.974;8.462;2024-03-17T10:52:47;13.80;99.90
31747;DHT22;18319;48.974;8.462;2024-03-17T10:55:25;13.60;99.90
31747;DHT22;18319;48.974;8.462;2024-03-17T10:57:54;13.80;99.90
31747;DHT22;18319;48.974;8.462;2024-03-17T11:00:23;13.80;99.90
31747;DHT22;18319;48.974;8.462;2024-03-17T11:02:51;13.70;99.90
31747;DHT22;18319;48.974;8.462;2024-03-17T11:05:22;13.90;99.90
31747;DHT22;18319;48.974;8.462;2024-03-17T11:07:51;13.90;99.90
31747;DHT22;18319;48.974;8.462;2024-03-17T11:10:21;14.10;99.90
31747;DHT22;18319;48.974;8.462;2024-03-17T11:12:51;14.30;99.90
31747;DHT22;18319;48.974;8.462;2024-03-17T11:15:39;14.50;99.90
31747;DHT22;18319;48.974;8.462;2024-03-17T11:18:28;14.80;99.90
31747;DHT22;18319;48.974;8.462;2024-03-17T11:20:57;15.00;99.90
31747;DHT22;18319;48.974;8.462;2024-03-17T11:23:26;14.70;99.90
31747;DHT22;18319;48.974;8.462;2024-03-17T11:25:57;14.50;99.90
31747;DHT22;18319;48.974;8.462;2024-03-17T11:28:50;14.50;99.90
31747;DHT22;18319;48.974;8.462;2024-03-17T11:31:34;14.40;99.90
31747;DHT22;18319;48.974;8.462;2024-03-17T11:34:03;14.50;99.90
31747;DHT22;18319;48.974;8.462;2024-03-17T11:36:32;14.70;99.90
31747;DHT22;18319;48.974;8.462;2024-03-17T11:39:02;14.80;99.90
31747;DHT22;18319;48.974;8.462;2024-03-17T11:41:39;14.80;99.90
31747;DHT22;18319;48.974;8.462;2024-03-17T11:44:24;14.90;99.90
31747;DHT22;18319;48.974;8.462;2024-03-17T11:46:52;14.90;99.90
31747;DHT22;18319;48.974;8.462;2024-03-17T11:49:20;14.70;99.90
31747;DHT22;18319;48.974;8.462;2024-03-17T11:51:46;14.80;99.90
31747;DHT22;18319;48.974;8.462;2024-03-17T11:54:15;14.70;99.90
31747;DHT22;18319;48.974;8.462;2024-03-17T11:56:48;14.90;99.90
31747;DHT22;18319;48.974;8.462;2024-03-17T11:59:16;15.00;99.90
31747;DHT22;18319;48.974;8.462;2024-03-17T12:01:43;14.90;99.90
31747;DHT22;18319;48.974;8.462;2024-03-17T12:04:12;14.90;99.90
31747;DHT22;18319;48.974;8.462;2024-03-17T12:06:38;15.00;99.90
31747;DHT22;18319;48.974;8.462;2024-03-17T12:09:08;15.00;99.90
31747;DHT22;18319;48.974;8.462;2024-03-17T12:11:35;15.10;99.90
31747;DHT22;18319;48.974;8.462;2024-03-17T12:14:17;14.90;99.90
31747;DHT22;18319;48.974;8.462;2024-03-17T12:16:49;14.80;99.90
31747;DHT22;18319;48.974;8.462;2024-03-17T12:19:20;15.00;99.90
31747;DHT22;18319;48.974;8.462;2024-03-17T12:21:49;15.00;99.90
31747;DHT22;18319;48.974;8.462;2024-03-17T12:24:17;15.20;99.90
31747;DHT22;18319;48.974;8.462;2024-03-17T12:26:45;15.20;99.90
31747;DHT22;18319;48.974;8.462;2024-03-17T12:29:30;15.40;99.90
31747;DHT22;18319;48.974;8.462;2024-03-17T12:31:59;15.30;99.90
31747;DHT22;18319;48.974;8.462;2024-03-17T12:34:27;15.60;99.90
31747;DHT22;18319;48.974;8.462;2024-03-17T12:36:56;15.30;99.90
31747;DHT22;18319;48.974;8.462;2024-03-17T12:39:24;15.40;99.90
31747;DHT22;18319;48.974;8.462;2024-03-17T12:42:02;15.50;99.90
31747;DHT22;18319;48.974;8.462;2024-03-17T12:44:27;15.50;99.90
31747;DHT22;18319;48.974;8.462;2024-03-17T12:46:57;15.70;99.90
31747;DHT22;18319;48.974;8.462;2024-03-17T12:49:23;15.60;99.90
31747;DHT22;18319;48.974;8.462;2024-03-17T12:51:51;15.70;99.90
31747;DHT22;18319;48.974;8.462;2024-03-17T12:54:20;15.80;99.90
31747;DHT22;18319;48.974;8.462;2024-03-17T12:56:48;15.60;99.90
31747;DHT22;18319;48.974;8.462;2024-03-17T12:59:37;15.50;99.90
31747;DHT22;18319;48.974;8.462;2024-03-17T13:02:42;15.40;99.90
31747;DHT22;18319;48.974;8.462;2024-03-17T13:05:18;15.60;99.90
31747;DHT22;18319;48.974;8.462;2024-03-17T13:07:46;15.80;99.90
31747;DHT22;18319;48.974;8.462;2024-03-17T13:10:14;15.80;99.90
31747;DHT22;18319;48.974;8.462;2024-03-17T13:12:41;15.50;99.90
31747;DHT22;18319;48.974;8.462;2024-03-17T13:15:13;15.40;99.90
31747;DHT22;18319;48.974;8.462;2024-03-17T13:17:41;15.40;99.90
31747;DHT22;18319;48.974;8.462;2024-03-17T13:20:12;15.60;99.90
31747;DHT22;18319;48.974;8.462;2024-03-17T13:22:40;15.80;99.90
31747;DHT22;18319;48.974;8.462;2024-03-17T13:25:14;15.70;99.90
31747;DHT22;18319;48.974;8.462;2024-03-17T13:27:47;15.60;99.90
31747;DHT22;18319;48.974;8.462;2024-03-17T13:30:15;15.90;99.90
31747;DHT22;18319;48.974;8.462;2024-03-17T13:32:43;15.80;99.90
31747;DHT22;18319;48.974;8.462;2024-03-17T13:35:15;15.70;99.90
31747;DHT22;18319;48.974;8.462;2024-03-17T13:37:42;15.50;99.90
31747;DHT22;18319;48.974;8.462;2024-03-17T13:40:10;15.40;99.90
31747;DHT22;18319;48.974;8.462;2024-03-17T13:42:38;15.70;99.90
31747;DHT22;18319;48.974;8.462;2024-03-17T13:45:05;15.80;99.90
31747;DHT22;18319;48.974;8.462;2024-03-17T13:47:35;15.80;99.90
31747;DHT22;18319;48.974;8.462;2024-03-17T13:50:04;15.90;99.90
31747;DHT22;18319;48.974;8.462;2024-03-17T13:52:36;15.90;99.90
31747;DHT22;18319;48.974;8.462;2024-03-17T13:55:03;16.20;99.90
31747;DHT22;18319;48.974;8.462;2024-03-17T13:57:32;16.00;99.90
31747;DHT22;18319;48.974;8.462;2024-03-17T13:59:59;15.90;99.90
31747;DHT22;18319;48.974;8.462;2024-03-17T14:02:25;15.90;99.90
31747;DHT22;18319;48.974;8.462;2024-03-17T14:04:52;15.60;99.90
31747;DHT22;18319;48.974;8.462;2024-03-17T14:07:20;15.70;99.90
31747;DHT22;18319;48.974;8.462;2024-03-17T14:09:47;15.40;99.90
31747;DHT22;18319;48.974;8.462;2024-03-17T14:12:13;15.30;99.90
31747;DHT22;18319;48.974;8.462;2024-03-17T14:14:41;15.40;99.90
31747;DHT22;18319;48.974;8.462;2024-03-17T14:17:08;15.30;99.90
31747;DHT22;18319;48.974;8.462;2024-03-17T14:19:35;15.10;99.90
31747;DHT22;18319;48.974;8.462;2024-03-17T14:22:02;15.00;99.90
31747;DHT22;18319;48.974;8.462;2024-03-17T14:24:30;15.10;99.90
31747;DHT22;18319;48.974;8.462;2024-03-17T14:26:56;15.10;99.90
31747;DHT22;18319;48.974;8.462;2024-03-17T14:29:23;15.10;99.90
31747;DHT22;18319;48.974;8.462;2024-03-17T14:31:50;15.20;99.90
31747;DHT22;18319;48.974;8.462;2024-03-17T14:34:17;15.20;99.90
31747;DHT22;18319;48.974;8.462;2024-03-17T14:36:43;15.40;99.90
31747;DHT22;18319;48.974;8.462;2024-03-17T14:39:10;15.50;99.90
31747;DHT22;18319;48.974;8.462;2024-03-17T14:41:38;15.50;99.90
31747;DHT22;18319;48.974;8.462;2024-03-17T14:44:05;15.40;99.90
31747;DHT22;18319;48.974;8.462;2024-03-17T14:46:32;15.60;99.90
31747;DHT22;18319;48.974;8.462;2024-03-17T14:48:59;15.40;99.90
31747;DHT22;18319;48.974;8.462;2024-03-17T14:51:26;15.40;99.90
31747;DHT22;18319;48.974;8.462;2024-03-17T14:53:53;15.30;99.90
31747;DHT22;18319;48.974;8.462;2024-03-17T14:56:21;14.80;99.90
31747;DHT22;18319;48.974;8.462;2024-03-17T14:58:49;14.90;99.90
31747;DHT22;18319;48.974;8.462;2024-03-17T15:01:16;15.00;99.90
31747;DHT22;18319;48.974;8.462;2024-03-17T15:03:44;15.00;99.90
31747;DHT22;18319;48.974;8.462;2024-03-17T15:06:12;14.80;99.90
31747;DHT22;18319;48.974;8.462;2024-03-17T15:08:40;14.90;99.90
31747;DHT22;18319;48.974;8.462;2024-03-17T15:11:07;14.80;99.90
31747;DHT22;18319;48.974;8.462;2024-03-17T15:13:35;14.60;99.90
31747;DHT22;18319;48.974;8.462;2024-03-17T15:16:03;14.60;99.90
31747;DHT22;18319;48.974;8.462;2024-03-17T15:18:31;14.40;99.90
31747;DHT22;18319;48.974;8.462;2024-03-17T15:20:59;14.50;99.90
31747;DHT22;18319;48.974;8.462;2024-03-17T15:23:26;14.30;99.90
31747;DHT22;18319;48.974;8.462;2024-03-17T15:25:59;14.20;99.90
31747;DHT22;18319;48.974;8.462;2024-03-17T15:28:26;14.30;99.90
31747;DHT22;18319;48.974;8.462;2024-03-17T15:30:53;14.30;99.90
31747;DHT22;18319;48.974;8.462;2024-03-17T15:33:21;14.10;99.90
31747;DHT22;18319;48.974;8.462;2024-03-17T15:35:49;14.10;99.90
31747;DHT22;18319;48.974;8.462;2024-03-17T15:38:17;14.30;99.90
31747;DHT22;18319;48.974;8.462;2024-03-17T15:40:45;14.30;99.90
31747;DHT22;18319;48.974;8.462;2024-03-17T15:43:12;14.30;99.90
31747;DHT22;18319;48.974;8.462;2024-03-17T15:45:38;14.30;99.90